Brooklyn, IN (46111)

06:52 PM EST del 23 novembre 2014 (GMT -0500)
Main St. | Change Station
CLOSE
Current Station
Stazione meteo personale
Location: Brooklyn, IN
Altitudine: 673 ft
Stazioni meteo nelle vicinanze
Avvisi attivi: Wind Advisory

Alt. 673 ft 39.54 °N, 86.37 °W | Updated 2 minutes ago

Pioggia
Pioggia
52.5 °F
Sembra 52.5 °F
N
2.2
Vento Variabile Vento da ESE

Oggi
Massima -- | Minima -- °F
--% Possibilità di precip.
Ieri
Massima -- | Minima -- °F
Precip. -- in
7:38 AM 5:25 PM
Luna crescente, 3% visible
Pressione 29.43 in
Visibilità 1.5 miglia
Nuvole Coperto 800 ft
Punto di rugiada 52 °F
Umidità 99%
Piovosità 0.93 in
Spessore del manto nevoso Non disponibile.
Raggi UV 0 fuori da 12
Polline .10 fuori da 12
Qualità dell'aria Non disponibile.
Flu Activity Non disponibile.
METAR KIND 232254Z 14013KT 1 1/2SM RA BR OVC008 11/10 A2942 RMK AO2 SFC VIS 4 SLP964 P0012 T01060100

More Conditions Fewer Conditions

Pressione 29.43 in
Visibilità 1.5 miglia
Nuvole Coperto 800 ft
Punto di rugiada 52 °F
Umidità 99%
Piovosità 0.93 in
Spessore del manto nevoso Non disponibile.
Raggi UV 0 fuori da 12
Polline .10 fuori da 12
Qualità dell'aria Non disponibile.
Flu Activity Non disponibile.
METAR KIND 232254Z 14013KT 1 1/2SM RA BR OVC008 11/10 A2942 RMK AO2 SFC VIS 4 SLP964 P0012 T01060100

More Conditions Fewer Conditions

10-Day Weather Forecast

Almanac

Astronomia

Nov. 23, 2014 Alba Tramonto
Ora attuale
Crepuscolo civile
Crepuscolo nautico
Crepuscolo astronomico
Luna
Estensione della luce visibile
Lunghezza del giorno
Tomorrow will be .
, % of the Moon is Illuminated

Gli estremi di oggi

State Highs State Lows

Community

WunderPhotos

Upload Photos

1,773,211 foto caricate!

WunderBlogs® & News

Nearby

Qualità dell'aria

  Qualità dell'aria Indice AQ Inquinante
Not available.

Profondità neve

Stazione Profondità Altitudine

Attività sismica

Città  Distanza Mag. Data & Ora
Minimo Magnitudo Mostrato è 2.5.

Temperature delle acque costiere

Località Temperatura

Stazioni meteo nelle vicinanze